sensor_id;sensor_type;location;lat;lon;timestamp;temperature;humidity
34989;DHT22;21192;40.182;44.516;2022-08-25T03:39:48;40.50;27.30
34989;DHT22;21192;40.182;44.516;2022-08-25T03:42:14;41.40;27.30
34989;DHT22;21192;40.182;44.516;2022-08-25T03:44:39;42.10;26.80
34989;DHT22;21192;40.182;44.516;2022-08-25T03:47:05;42.80;26.20
34989;DHT22;21192;40.182;44.516;2022-08-25T03:49:31;43.70;25.80
34989;DHT22;21192;40.182;44.516;2022-08-25T03:51:57;44.30;25.30
34989;DHT22;21192;40.182;44.516;2022-08-25T03:54:25;45.00;24.90
34989;DHT22;21192;40.182;44.516;2022-08-25T03:56:51;45.70;24.50
34989;DHT22;21192;40.182;44.516;2022-08-25T03:59:17;46.50;24.20
34989;DHT22;21192;40.182;44.516;2022-08-25T04:01:44;47.20;23.80
34989;DHT22;21192;40.182;44.516;2022-08-25T04:04:12;47.80;23.50
34989;DHT22;21192;40.182;44.516;2022-08-25T04:06:39;48.40;23.10
34989;DHT22;21192;40.182;44.516;2022-08-25T04:09:06;49.00;22.90
34989;DHT22;21192;40.182;44.516;2022-08-25T04:11:32;49.50;22.50
34989;DHT22;21192;40.182;44.516;2022-08-25T04:13:58;50.10;22.20
34989;DHT22;21192;40.182;44.516;2022-08-25T04:16:28;50.60;21.80
34989;DHT22;21192;40.182;44.516;2022-08-25T04:18:59;51.00;21.50
34989;DHT22;21192;40.182;44.516;2022-08-25T04:21:27;51.50;21.20
34989;DHT22;21192;40.182;44.516;2022-08-25T04:23:55;51.90;20.90
34989;DHT22;21192;40.182;44.516;2022-08-25T04:26:25;52.40;20.80
34989;DHT22;21192;40.182;44.516;2022-08-25T04:28:52;52.90;20.50
34989;DHT22;21192;40.182;44.516;2022-08-25T04:31:19;53.40;20.20
34989;DHT22;21192;40.182;44.516;2022-08-25T04:33:46;53.90;20.10
34989;DHT22;21192;40.182;44.516;2022-08-25T04:36:14;54.30;20.00
34989;DHT22;21192;40.182;44.516;2022-08-25T04:38:42;54.50;19.60
34989;DHT22;21192;40.182;44.516;2022-08-25T04:41:10;54.80;19.30
34989;DHT22;21192;40.182;44.516;2022-08-25T04:43:37;55.00;19.00
34989;DHT22;21192;40.182;44.516;2022-08-25T04:46:12;55.30;18.90
34989;DHT22;21192;40.182;44.516;2022-08-25T04:48:39;55.30;19.00
34989;DHT22;21192;40.182;44.516;2022-08-25T04:51:08;55.30;19.00
34989;DHT22;21192;40.182;44.516;2022-08-25T04:53:35;55.50;18.90
34989;DHT22;21192;40.182;44.516;2022-08-25T04:56:04;55.80;18.70
34989;DHT22;21192;40.182;44.516;2022-08-25T04:58:30;55.80;19.00
34989;DHT22;21192;40.182;44.516;2022-08-25T05:01:04;55.70;19.50
34989;DHT22;21192;40.182;44.516;2022-08-25T05:03:30;55.80;19.20
34989;DHT22;21192;40.182;44.516;2022-08-25T05:05:57;56.20;18.90
34989;DHT22;21192;40.182;44.516;2022-08-25T05:08:22;56.40;18.60
34989;DHT22;21192;40.182;44.516;2022-08-25T05:10:49;56.30;18.50
34989;DHT22;21192;40.182;44.516;2022-08-25T05:13:15;56.60;18.40
34989;DHT22;21192;40.182;44.516;2022-08-25T05:15:42;56.50;18.20
34989;DHT22;21192;40.182;44.516;2022-08-25T05:18:16;56.60;18.30
34989;DHT22;21192;40.182;44.516;2022-08-25T05:20:43;57.00;18.40
34989;DHT22;21192;40.182;44.516;2022-08-25T05:23:08;56.80;18.00
34989;DHT22;21192;40.182;44.516;2022-08-25T05:25:34;55.60;17.80
34989;DHT22;21192;40.182;44.516;2022-08-25T05:28:01;53.00;18.20
34989;DHT22;21192;40.182;44.516;2022-08-25T05:30:27;51.00;18.80
34989;DHT22;21192;40.182;44.516;2022-08-25T05:32:53;49.20;19.60
34989;DHT22;21192;40.182;44.516;2022-08-25T05:35:19;47.80;20.40
34989;DHT22;21192;40.182;44.516;2022-08-25T05:37:45;46.40;20.80
34989;DHT22;21192;40.182;44.516;2022-08-25T05:40:11;45.00;21.30
34989;DHT22;21192;40.182;44.516;2022-08-25T05:42:37;43.80;22.10
34989;DHT22;21192;40.182;44.516;2022-08-25T05:45:04;42.60;22.80
34989;DHT22;21192;40.182;44.516;2022-08-25T05:47:31;41.40;23.30
34989;DHT22;21192;40.182;44.516;2022-08-25T05:49:57;40.30;23.70
34989;DHT22;21192;40.182;44.516;2022-08-25T05:52:23;39.60;24.20
34989;DHT22;21192;40.182;44.516;2022-08-25T05:54:49;38.80;24.60
34989;DHT22;21192;40.182;44.516;2022-08-25T05:57:15;38.20;25.00
34989;DHT22;21192;40.182;44.516;2022-08-25T05:59:40;37.70;25.30
34989;DHT22;21192;40.182;44.516;2022-08-25T06:02:06;37.30;26.00
34989;DHT22;21192;40.182;44.516;2022-08-25T06:04:51;37.00;26.80
34989;DHT22;21192;40.182;44.516;2022-08-25T06:07:16;36.60;26.60
34989;DHT22;21192;40.182;44.516;2022-08-25T06:09:43;36.20;26.60
34989;DHT22;21192;40.182;44.516;2022-08-25T06:12:11;35.80;27.00
34989;DHT22;21192;40.182;44.516;2022-08-25T06:14:37;35.50;27.30
34989;DHT22;21192;40.182;44.516;2022-08-25T06:17:03;35.20;27.70
34989;DHT22;21192;40.182;44.516;2022-08-25T06:19:29;35.00;27.80
34989;DHT22;21192;40.182;44.516;2022-08-25T06:21:56;34.90;27.80
34989;DHT22;21192;40.182;44.516;2022-08-25T06:24:27;34.90;28.00
34989;DHT22;21192;40.182;44.516;2022-08-25T06:26:53;34.90;28.10
34989;DHT22;21192;40.182;44.516;2022-08-25T06:29:21;34.90;28.10
34989;DHT22;21192;40.182;44.516;2022-08-25T06:31:47;34.90;28.00
34989;DHT22;21192;40.182;44.516;2022-08-25T06:34:15;34.80;28.00
34989;DHT22;21192;40.182;44.516;2022-08-25T06:36:41;34.80;28.10
34989;DHT22;21192;40.182;44.516;2022-08-25T06:39:08;34.80;28.10
34989;DHT22;21192;40.182;44.516;2022-08-25T06:41:34;34.80;28.10
34989;DHT22;21192;40.182;44.516;2022-08-25T06:44:00;34.70;28.30
34989;DHT22;21192;40.182;44.516;2022-08-25T06:46:27;34.70;28.60
34989;DHT22;21192;40.182;44.516;2022-08-25T06:48:54;34.50;28.60
34989;DHT22;21192;40.182;44.516;2022-08-25T06:51:21;34.40;28.40
34989;DHT22;21192;40.182;44.516;2022-08-25T06:53:48;34.20;28.40
34989;DHT22;21192;40.182;44.516;2022-08-25T06:56:16;34.00;28.70
34989;DHT22;21192;40.182;44.516;2022-08-25T06:58:42;33.90;29.00
34989;DHT22;21192;40.182;44.516;2022-08-25T07:01:21;33.90;29.40
34989;DHT22;21192;40.182;44.516;2022-08-25T07:03:55;33.80;29.30
34989;DHT22;21192;40.182;44.516;2022-08-25T07:06:22;33.80;29.20
34989;DHT22;21192;40.182;44.516;2022-08-25T07:08:48;33.80;29.30
34989;DHT22;21192;40.182;44.516;2022-08-25T07:11:15;33.80;29.60
34989;DHT22;21192;40.182;44.516;2022-08-25T07:13:41;33.80;29.70
34989;DHT22;21192;40.182;44.516;2022-08-25T07:16:07;33.70;29.50
34989;DHT22;21192;40.182;44.516;2022-08-25T07:18:36;33.60;30.00
34989;DHT22;21192;40.182;44.516;2022-08-25T07:21:02;33.40;30.00
34989;DHT22;21192;40.182;44.516;2022-08-25T07:23:28;33.40;30.10
34989;DHT22;21192;40.182;44.516;2022-08-25T07:25:54;33.30;30.00
34989;DHT22;21192;40.182;44.516;2022-08-25T07:28:21;33.30;30.00
34989;DHT22;21192;40.182;44.516;2022-08-25T07:30:49;33.30;30.00
34989;DHT22;21192;40.182;44.516;2022-08-25T07:33:16;33.30;29.90
34989;DHT22;21192;40.182;44.516;2022-08-25T07:35:42;33.40;29.90
34989;DHT22;21192;40.182;44.516;2022-08-25T07:38:07;33.40;29.90
34989;DHT22;21192;40.182;44.516;2022-08-25T07:40:36;33.40;30.10
34989;DHT22;21192;40.182;44.516;2022-08-25T07:43:05;33.40;30.50
34989;DHT22;21192;40.182;44.516;2022-08-25T07:45:37;33.20;30.20
34989;DHT22;21192;40.182;44.516;2022-08-25T07:48:09;33.20;30.10
34989;DHT22;21192;40.182;44.516;2022-08-25T07:50:38;33.10;30.40
34989;DHT22;21192;40.182;44.516;2022-08-25T07:53:08;33.00;30.40
34989;DHT22;21192;40.182;44.516;2022-08-25T07:55:34;33.00;30.50
34989;DHT22;21192;40.182;44.516;2022-08-25T07:58:05;32.90;30.60
34989;DHT22;21192;40.182;44.516;2022-08-25T08:00:33;32.90;30.70
34989;DHT22;21192;40.182;44.516;2022-08-25T08:03:03;32.90;30.60
34989;DHT22;21192;40.182;44.516;2022-08-25T08:05:30;32.80;30.60
34989;DHT22;21192;40.182;44.516;2022-08-25T08:07:56;32.70;30.60
34989;DHT22;21192;40.182;44.516;2022-08-25T08:10:22;32.70;30.90
34989;DHT22;21192;40.182;44.516;2022-08-25T08:12:50;32.70;30.90
34989;DHT22;21192;40.182;44.516;2022-08-25T08:15:16;32.70;30.80
34989;DHT22;21192;40.182;44.516;2022-08-25T08:17:43;32.70;31.00
34989;DHT22;21192;40.182;44.516;2022-08-25T08:20:10;32.70;30.90
34989;DHT22;21192;40.182;44.516;2022-08-25T08:22:38;32.60;30.90
34989;DHT22;21192;40.182;44.516;2022-08-25T08:25:06;32.60;30.90
34989;DHT22;21192;40.182;44.516;2022-08-25T08:27:32;32.60;31.00
34989;DHT22;21192;40.182;44.516;2022-08-25T08:29:59;32.60;30.90
34989;DHT22;21192;40.182;44.516;2022-08-25T08:32:25;32.50;31.00
34989;DHT22;21192;40.182;44.516;2022-08-25T08:34:51;32.50;31.00
34989;DHT22;21192;40.182;44.516;2022-08-25T08:37:18;32.60;30.90
34989;DHT22;21192;40.182;44.516;2022-08-25T08:39:44;32.60;30.90
34989;DHT22;21192;40.182;44.516;2022-08-25T08:56:37;32.00;31.30
34989;DHT22;21192;40.182;44.516;2022-08-25T08:59:11;32.00;31.40
34989;DHT22;21192;40.182;44.516;2022-08-25T09:01:49;32.00;32.00
34989;DHT22;21192;40.182;44.516;2022-08-25T09:04:41;31.90;31.70
34989;DHT22;21192;40.182;44.516;2022-08-25T09:07:23;31.90;31.60
34989;DHT22;21192;40.182;44.516;2022-08-25T09:09:50;31.90;31.50
34989;DHT22;21192;40.182;44.516;2022-08-25T09:23:54;32.00;31.40
34989;DHT22;21192;40.182;44.516;2022-08-25T09:26:47;32.00;31.20
34989;DHT22;21192;40.182;44.516;2022-08-25T09:29:21;32.00;31.30
34989;DHT22;21192;40.182;44.516;2022-08-25T09:31:49;32.00;31.10
34989;DHT22;21192;40.182;44.516;2022-08-25T09:34:21;32.00;31.30
34989;DHT22;21192;40.182;44.516;2022-08-25T09:36:48;32.00;31.60
34989;DHT22;21192;40.182;44.516;2022-08-25T09:39:18;32.00;31.50
34989;DHT22;21192;40.182;44.516;2022-08-25T09:41:49;32.10;31.40
34989;DHT22;21192;40.182;44.516;2022-08-25T09:44:18;32.00;30.90
34989;DHT22;21192;40.182;44.516;2022-08-25T09:47:03;32.00;31.20
34989;DHT22;21192;40.182;44.516;2022-08-25T09:49:39;32.10;31.50
34989;DHT22;21192;40.182;44.516;2022-08-25T09:55:26;32.20;31.10
34989;DHT22;21192;40.182;44.516;2022-08-25T09:57:55;32.10;31.10
34989;DHT22;21192;40.182;44.516;2022-08-25T10:00:32;32.10;31.20
34989;DHT22;21192;40.182;44.516;2022-08-25T10:05:31;32.20;31.20
34989;DHT22;21192;40.182;44.516;2022-08-25T10:08:09;32.30;31.60
34989;DHT22;21192;40.182;44.516;2022-08-25T10:13:19;32.40;31.20
34989;DHT22;21192;40.182;44.516;2022-08-25T10:15:46;32.40;30.60
34989;DHT22;21192;40.182;44.516;2022-08-25T10:20:41;32.30;29.80
34989;DHT22;21192;40.182;44.516;2022-08-25T10:23:10;32.20;29.70
34989;DHT22;21192;40.182;44.516;2022-08-25T10:25:42;32.20;29.80
34989;DHT22;21192;40.182;44.516;2022-08-25T10:28:32;32.20;29.90
34989;DHT22;21192;40.182;44.516;2022-08-25T10:36:26;32.20;30.10
34989;DHT22;21192;40.182;44.516;2022-08-25T10:38:59;32.30;30.40
34989;DHT22;21192;40.182;44.516;2022-08-25T10:41:54;32.40;30.00
34989;DHT22;21192;40.182;44.516;2022-08-25T10:47:55;32.40;29.30
34989;DHT22;21192;40.182;44.516;2022-08-25T10:50:37;32.40;29.30
34989;DHT22;21192;40.182;44.516;2022-08-25T10:56:15;32.40;29.60
34989;DHT22;21192;40.182;44.516;2022-08-25T10:59:15;32.50;29.80
34989;DHT22;21192;40.182;44.516;2022-08-25T11:02:23;32.60;29.50
34989;DHT22;21192;40.182;44.516;2022-08-25T11:05:09;32.60;29.00
34989;DHT22;21192;40.182;44.516;2022-08-25T11:07:45;32.70;29.00
34989;DHT22;21192;40.182;44.516;2022-08-25T11:10:20;32.70;29.00
34989;DHT22;21192;40.182;44.516;2022-08-25T11:13:04;32.80;28.80
34989;DHT22;21192;40.182;44.516;2022-08-25T11:15:43;32.80;28.70
34989;DHT22;21192;40.182;44.516;2022-08-25T11:18:13;32.90;29.00
34989;DHT22;21192;40.182;44.516;2022-08-25T11:20:51;32.90;29.00
34989;DHT22;21192;40.182;44.516;2022-08-25T11:23:28;32.90;28.70
34989;DHT22;21192;40.182;44.516;2022-08-25T11:26:02;32.90;29.00
34989;DHT22;21192;40.182;44.516;2022-08-25T11:28:39;33.00;28.90
34989;DHT22;21192;40.182;44.516;2022-08-25T11:31:08;33.00;28.30
34989;DHT22;21192;40.182;44.516;2022-08-25T11:33:35;33.00;28.20
34989;DHT22;21192;40.182;44.516;2022-08-25T11:36:24;33.10;28.40
34989;DHT22;21192;40.182;44.516;2022-08-25T11:44:18;33.10;27.60
34989;DHT22;21192;40.182;44.516;2022-08-25T11:52:37;33.10;25.90
34989;DHT22;21192;40.182;44.516;2022-08-25T11:54:54;33.10;25.80
34989;DHT22;21192;40.182;44.516;2022-08-25T11:57:24;33.10;26.40
34989;DHT22;21192;40.182;44.516;2022-08-25T12:02:40;33.10;26.40
34989;DHT22;21192;40.182;44.516;2022-08-25T12:05:07;33.10;26.90
34989;DHT22;21192;40.182;44.516;2022-08-25T12:08:02;33.10;26.80
34989;DHT22;21192;40.182;44.516;2022-08-25T12:11:00;33.10;26.20
34989;DHT22;21192;40.182;44.516;2022-08-25T12:16:04;33.20;25.90
34989;DHT22;21192;40.182;44.516;2022-08-25T12:23:31;33.30;26.80
34989;DHT22;21192;40.182;44.516;2022-08-25T12:28:55;33.30;26.40
34989;DHT22;21192;40.182;44.516;2022-08-25T12:37:04;33.30;26.80
34989;DHT22;21192;40.182;44.516;2022-08-25T12:39:36;33.20;26.70
34989;DHT22;21192;40.182;44.516;2022-08-25T12:42:21;33.30;26.80
34989;DHT22;21192;40.182;44.516;2022-08-25T12:47:32;33.30;26.30
34989;DHT22;21192;40.182;44.516;2022-08-25T12:50:50;33.30;26.30
34989;DHT22;21192;40.182;44.516;2022-08-25T12:53:34;33.30;26.50
34989;DHT22;21192;40.182;44.516;2022-08-25T12:56:22;33.30;27.00
34989;DHT22;21192;40.182;44.516;2022-08-25T13:16:01;33.40;26.60
34989;DHT22;21192;40.182;44.516;2022-08-25T13:18:31;33.40;27.10
34989;DHT22;21192;40.182;44.516;2022-08-25T13:21:18;33.40;27.10
34989;DHT22;21192;40.182;44.516;2022-08-25T13:23:49;33.40;26.60
34989;DHT22;21192;40.182;44.516;2022-08-25T13:26:25;33.40;26.80
34989;DHT22;21192;40.182;44.516;2022-08-25T13:29:18;33.40;26.60
34989;DHT22;21192;40.182;44.516;2022-08-25T13:31:56;33.30;26.10
34989;DHT22;21192;40.182;44.516;2022-08-25T13:34:26;33.30;26.00
34989;DHT22;21192;40.182;44.516;2022-08-25T13:36:53;33.30;26.00
34989;DHT22;21192;40.182;44.516;2022-08-25T13:39:38;33.20;26.00
34989;DHT22;21192;40.182;44.516;2022-08-25T13:42:06;33.20;26.30
34989;DHT22;21192;40.182;44.516;2022-08-25T13:44:37;33.20;26.70
34989;DHT22;21192;40.182;44.516;2022-08-25T13:47:14;33.10;26.70
34989;DHT22;21192;40.182;44.516;2022-08-25T13:49:43;33.10;26.80
34989;DHT22;21192;40.182;44.516;2022-08-25T13:52:26;33.10;27.00
34989;DHT22;21192;40.182;44.516;2022-08-25T13:54:57;33.10;27.00
34989;DHT22;21192;40.182;44.516;2022-08-25T13:57:27;33.10;27.00
34989;DHT22;21192;40.182;44.516;2022-08-25T13:59:59;33.10;26.90
34989;DHT22;21192;40.182;44.516;2022-08-25T14:02:45;33.10;26.90
34989;DHT22;21192;40.182;44.516;2022-08-25T14:05:13;33.00;26.90
34989;DHT22;21192;40.182;44.516;2022-08-25T14:07:55;33.00;27.00
34989;DHT22;21192;40.182;44.516;2022-08-25T14:10:41;33.00;27.10
34989;DHT22;21192;40.182;44.516;2022-08-25T14:13:11;33.00;27.20
34989;DHT22;21192;40.182;44.516;2022-08-25T14:15:38;32.90;27.10
34989;DHT22;21192;40.182;44.516;2022-08-25T14:18:12;32.90;27.00
34989;DHT22;21192;40.182;44.516;2022-08-25T14:20:51;32.80;26.90
34989;DHT22;21192;40.182;44.516;2022-08-25T14:23:24;32.80;26.90
34989;DHT22;21192;40.182;44.516;2022-08-25T14:25:53;32.80;26.90
34989;DHT22;21192;40.182;44.516;2022-08-25T14:28:23;32.80;27.10
34989;DHT22;21192;40.182;44.516;2022-08-25T14:31:00;32.70;27.40
34989;DHT22;21192;40.182;44.516;2022-08-25T14:33:33;32.70;27.50
34989;DHT22;21192;40.182;44.516;2022-08-25T14:36:00;32.70;27.60
34989;DHT22;21192;40.182;44.516;2022-08-25T14:38:29;32.60;27.50
34989;DHT22;21192;40.182;44.516;2022-08-25T14:40:55;32.60;27.60
34989;DHT22;21192;40.182;44.516;2022-08-25T14:43:21;32.50;27.60
34989;DHT22;21192;40.182;44.516;2022-08-25T14:45:47;32.50;27.90
34989;DHT22;21192;40.182;44.516;2022-08-25T14:48:43;32.50;28.00
34989;DHT22;21192;40.182;44.516;2022-08-25T14:51:11;32.40;28.30
34989;DHT22;21192;40.182;44.516;2022-08-25T14:53:38;32.30;28.30
34989;DHT22;21192;40.182;44.516;2022-08-25T14:56:04;32.30;28.40
34989;DHT22;21192;40.182;44.516;2022-08-25T14:58:30;32.20;28.40
34989;DHT22;21192;40.182;44.516;2022-08-25T15:00:57;32.10;28.50
34989;DHT22;21192;40.182;44.516;2022-08-25T15:03:32;32.00;28.70
34989;DHT22;21192;40.182;44.516;2022-08-25T15:06:00;32.00;28.90
34989;DHT22;21192;40.182;44.516;2022-08-25T15:08:26;31.90;28.80
34989;DHT22;21192;40.182;44.516;2022-08-25T15:11:11;31.80;28.60
34989;DHT22;21192;40.182;44.516;2022-08-25T15:13:39;31.80;28.50
34989;DHT22;21192;40.182;44.516;2022-08-25T15:16:06;31.70;28.50
34989;DHT22;21192;40.182;44.516;2022-08-25T15:18:33;31.70;28.80
34989;DHT22;21192;40.182;44.516;2022-08-25T15:20:59;31.60;28.60
34989;DHT22;21192;40.182;44.516;2022-08-25T15:23:25;31.50;28.60
34989;DHT22;21192;40.182;44.516;2022-08-25T15:25:53;31.50;28.60
34989;DHT22;21192;40.182;44.516;2022-08-25T15:28:21;31.40;28.50
34989;DHT22;21192;40.182;44.516;2022-08-25T15:30:47;31.40;28.60
34989;DHT22;21192;40.182;44.516;2022-08-25T15:33:13;31.40;28.90
34989;DHT22;21192;40.182;44.516;2022-08-25T15:35:39;31.30;29.10
34989;DHT22;21192;40.182;44.516;2022-08-25T15:38:06;31.20;29.90
34989;DHT22;21192;40.182;44.516;2022-08-25T15:40:32;31.20;32.60
34989;DHT22;21192;40.182;44.516;2022-08-25T15:42:59;31.10;34.00
34989;DHT22;21192;40.182;44.516;2022-08-25T15:45:26;31.00;36.30
34989;DHT22;21192;40.182;44.516;2022-08-25T15:47:51;30.90;38.40
34989;DHT22;21192;40.182;44.516;2022-08-25T15:50:19;30.80;39.40
34989;DHT22;21192;40.182;44.516;2022-08-25T15:52:46;30.70;40.00
34989;DHT22;21192;40.182;44.516;2022-08-25T15:55:12;30.70;40.70
34989;DHT22;21192;40.182;44.516;2022-08-25T15:57:39;30.60;41.20
34989;DHT22;21192;40.182;44.516;2022-08-25T16:00:07;30.50;41.50
34989;DHT22;21192;40.182;44.516;2022-08-25T16:02:35;30.40;41.60
34989;DHT22;21192;40.182;44.516;2022-08-25T16:05:02;30.40;41.80
34989;DHT22;21192;40.182;44.516;2022-08-25T16:07:28;30.30;42.00
34989;DHT22;21192;40.182;44.516;2022-08-25T16:09:58;30.20;42.10
34989;DHT22;21192;40.182;44.516;2022-08-25T16:12:25;30.20;42.40
34989;DHT22;21192;40.182;44.516;2022-08-25T16:14:51;30.10;42.60
34989;DHT22;21192;40.182;44.516;2022-08-25T16:17:18;30.00;42.70
34989;DHT22;21192;40.182;44.516;2022-08-25T16:19:45;29.90;42.80
34989;DHT22;21192;40.182;44.516;2022-08-25T16:22:11;29.80;42.90
34989;DHT22;21192;40.182;44.516;2022-08-25T16:24:41;29.80;43.10
34989;DHT22;21192;40.182;44.516;2022-08-25T16:27:10;29.70;43.10
34989;DHT22;21192;40.182;44.516;2022-08-25T16:29:38;29.60;43.20
34989;DHT22;21192;40.182;44.516;2022-08-25T16:32:05;29.50;43.30
34989;DHT22;21192;40.182;44.516;2022-08-25T16:34:32;29.50;43.40
34989;DHT22;21192;40.182;44.516;2022-08-25T16:36:59;29.30;43.30
34989;DHT22;21192;40.182;44.516;2022-08-25T16:39:25;29.20;43.30
34989;DHT22;21192;40.182;44.516;2022-08-25T16:41:51;29.10;43.30
34989;DHT22;21192;40.182;44.516;2022-08-25T16:44:18;29.10;43.30
34989;DHT22;21192;40.182;44.516;2022-08-25T16:46:44;29.10;43.30
34989;DHT22;21192;40.182;44.516;2022-08-25T16:49:12;29.00;43.40
34989;DHT22;21192;40.182;44.516;2022-08-25T16:51:39;29.00;43.60
34989;DHT22;21192;40.182;44.516;2022-08-25T16:54:06;28.90;43.60
34989;DHT22;21192;40.182;44.516;2022-08-25T16:56:52;28.80;43.50
34989;DHT22;21192;40.182;44.516;2022-08-25T16:59:18;28.70;43.70
34989;DHT22;21192;40.182;44.516;2022-08-25T17:01:43;28.60;43.90
34989;DHT22;21192;40.182;44.516;2022-08-25T17:04:10;28.50;44.10
34989;DHT22;21192;40.182;44.516;2022-08-25T17:06:41;28.40;44.20
34989;DHT22;21192;40.182;44.516;2022-08-25T17:09:10;28.30;44.30
34989;DHT22;21192;40.182;44.516;2022-08-25T17:11:44;28.30;44.40
34989;DHT22;21192;40.182;44.516;2022-08-25T17:14:15;28.30;44.60
34989;DHT22;21192;40.182;44.516;2022-08-25T17:16:42;28.30;44.50
34989;DHT22;21192;40.182;44.516;2022-08-25T17:19:10;28.20;44.40
34989;DHT22;21192;40.182;44.516;2022-08-25T17:21:40;28.20;44.50
34989;DHT22;21192;40.182;44.516;2022-08-25T17:24:07;28.20;44.50
34989;DHT22;21192;40.182;44.516;2022-08-25T17:26:36;28.20;44.60
34989;DHT22;21192;40.182;44.516;2022-08-25T17:29:03;28.20;44.60
34989;DHT22;21192;40.182;44.516;2022-08-25T17:31:29;28.20;44.60
34989;DHT22;21192;40.182;44.516;2022-08-25T17:33:55;28.20;44.60
34989;DHT22;21192;40.182;44.516;2022-08-25T17:36:21;28.20;44.50
34989;DHT22;21192;40.182;44.516;2022-08-25T17:38:47;28.20;44.50
34989;DHT22;21192;40.182;44.516;2022-08-25T17:41:15;28.10;44.30
34989;DHT22;21192;40.182;44.516;2022-08-25T17:43:42;28.10;44.20
34989;DHT22;21192;40.182;44.516;2022-08-25T17:46:10;28.00;44.10
34989;DHT22;21192;40.182;44.516;2022-08-25T17:48:37;28.00;44.00
34989;DHT22;21192;40.182;44.516;2022-08-25T17:51:04;28.00;43.70
34989;DHT22;21192;40.182;44.516;2022-08-25T17:53:32;28.00;43.70
34989;DHT22;21192;40.182;44.516;2022-08-25T17:56:13;27.90;43.50
34989;DHT22;21192;40.182;44.516;2022-08-25T17:58:41;27.90;43.30
34989;DHT22;21192;40.182;44.516;2022-08-25T18:01:46;27.90;43.40
34989;DHT22;21192;40.182;44.516;2022-08-25T18:04:05;27.80;43.40
34989;DHT22;21192;40.182;44.516;2022-08-25T18:06:31;27.80;43.30
34989;DHT22;21192;40.182;44.516;2022-08-25T18:08:58;27.80;43.40
34989;DHT22;21192;40.182;44.516;2022-08-25T18:11:27;27.70;43.50
34989;DHT22;21192;40.182;44.516;2022-08-25T18:13:54;27.60;43.60
34989;DHT22;21192;40.182;44.516;2022-08-25T18:16:21;27.60;43.60
34989;DHT22;21192;40.182;44.516;2022-08-25T18:18:47;27.60;43.70
34989;DHT22;21192;40.182;44.516;2022-08-25T18:21:14;27.50;43.70
34989;DHT22;21192;40.182;44.516;2022-08-25T18:23:41;27.50;43.70
34989;DHT22;21192;40.182;44.516;2022-08-25T18:26:08;27.50;43.80
34989;DHT22;21192;40.182;44.516;2022-08-25T18:28:34;27.50;43.90
34989;DHT22;21192;40.182;44.516;2022-08-25T18:31:00;27.50;44.00
34989;DHT22;21192;40.182;44.516;2022-08-25T18:33:26;27.40;44.00
34989;DHT22;21192;40.182;44.516;2022-08-25T18:35:54;27.40;44.20
34989;DHT22;21192;40.182;44.516;2022-08-25T18:38:21;27.40;44.40
34989;DHT22;21192;40.182;44.516;2022-08-25T18:41:06;27.40;44.50
34989;DHT22;21192;40.182;44.516;2022-08-25T18:43:33;27.40;44.60
34989;DHT22;21192;40.182;44.516;2022-08-25T18:46:00;27.40;44.60
34989;DHT22;21192;40.182;44.516;2022-08-25T18:48:28;27.30;44.70
34989;DHT22;21192;40.182;44.516;2022-08-25T18:50:54;27.30;44.70
34989;DHT22;21192;40.182;44.516;2022-08-25T18:53:22;27.20;44.80
34989;DHT22;21192;40.182;44.516;2022-08-25T18:55:49;27.20;44.90
34989;DHT22;21192;40.182;44.516;2022-08-25T18:58:15;27.20;45.00
34989;DHT22;21192;40.182;44.516;2022-08-25T19:00:42;27.20;45.00
34989;DHT22;21192;40.182;44.516;2022-08-25T19:03:10;27.20;45.00
34989;DHT22;21192;40.182;44.516;2022-08-25T19:05:37;27.20;45.10
34989;DHT22;21192;40.182;44.516;2022-08-25T19:08:07;27.10;45.10
34989;DHT22;21192;40.182;44.516;2022-08-25T19:10:33;27.10;45.10
34989;DHT22;21192;40.182;44.516;2022-08-25T19:13:02;27.10;45.20
34989;DHT22;21192;40.182;44.516;2022-08-25T19:15:28;27.10;45.20
34989;DHT22;21192;40.182;44.516;2022-08-25T19:17:56;27.10;45.10
34989;DHT22;21192;40.182;44.516;2022-08-25T19:20:23;27.10;45.10
34989;DHT22;21192;40.182;44.516;2022-08-25T19:22:49;27.20;45.10
34989;DHT22;21192;40.182;44.516;2022-08-25T19:25:17;27.20;44.90
34989;DHT22;21192;40.182;44.516;2022-08-25T19:27:43;27.20;44.70
34989;DHT22;21192;40.182;44.516;2022-08-25T19:30:11;27.30;44.60
34989;DHT22;21192;40.182;44.516;2022-08-25T19:32:38;27.30;44.40
34989;DHT22;21192;40.182;44.516;2022-08-25T19:35:10;27.30;44.30
34989;DHT22;21192;40.182;44.516;2022-08-25T19:37:36;27.30;44.20
34989;DHT22;21192;40.182;44.516;2022-08-25T19:40:05;27.40;44.20
34989;DHT22;21192;40.182;44.516;2022-08-25T19:42:31;27.40;44.00
34989;DHT22;21192;40.182;44.516;2022-08-25T19:44:58;27.40;44.00
34989;DHT22;21192;40.182;44.516;2022-08-25T19:47:24;27.40;44.30
34989;DHT22;21192;40.182;44.516;2022-08-25T19:49:50;27.40;44.20
34989;DHT22;21192;40.182;44.516;2022-08-25T19:52:16;27.30;44.10
34989;DHT22;21192;40.182;44.516;2022-08-25T19:54:50;27.30;44.20
34989;DHT22;21192;40.182;44.516;2022-08-25T19:57:18;27.30;44.10
34989;DHT22;21192;40.182;44.516;2022-08-25T19:59:44;27.30;44.00
34989;DHT22;21192;40.182;44.516;2022-08-25T20:02:20;27.30;43.90
34989;DHT22;21192;40.182;44.516;2022-08-25T20:04:50;27.30;44.00
34989;DHT22;21192;40.182;44.516;2022-08-25T20:07:19;27.30;44.00
34989;DHT22;21192;40.182;44.516;2022-08-25T20:09:46;27.30;43.90
34989;DHT22;21192;40.182;44.516;2022-08-25T20:12:12;27.30;43.60
34989;DHT22;21192;40.182;44.516;2022-08-25T20:14:38;27.30;43.60
34989;DHT22;21192;40.182;44.516;2022-08-25T20:17:05;27.30;43.50
34989;DHT22;21192;40.182;44.516;2022-08-25T20:19:31;27.20;43.40
34989;DHT22;21192;40.182;44.516;2022-08-25T20:21:57;27.20;43.60
34989;DHT22;21192;40.182;44.516;2022-08-25T20:24:23;27.10;43.80
34989;DHT22;21192;40.182;44.516;2022-08-25T20:27:08;27.10;44.00
34989;DHT22;21192;40.182;44.516;2022-08-25T20:29:34;27.00;44.20
34989;DHT22;21192;40.182;44.516;2022-08-25T20:31:59;27.00;43.90
34989;DHT22;21192;40.182;44.516;2022-08-25T20:34:29;27.00;44.40
34989;DHT22;21192;40.182;44.516;2022-08-25T20:36:55;27.00;43.70
34989;DHT22;21192;40.182;44.516;2022-08-25T20:39:21;26.90;43.70
34989;DHT22;21192;40.182;44.516;2022-08-25T20:41:48;26.90;43.60
34989;DHT22;21192;40.182;44.516;2022-08-25T20:44:15;26.90;43.40
34989;DHT22;21192;40.182;44.516;2022-08-25T20:46:40;26.90;43.40
34989;DHT22;21192;40.182;44.516;2022-08-25T20:49:06;26.90;43.30